Time;durP1;ratioP1;P1;durP2;ratioP2;P2;SDS_P1;SDS_P2;PMS_P1;PMS_P2;Temp;Humidity;BMP_temperature;BMP_pressure;BME280_temperature;BME280_humidity;BME280_pressure;Samples;Min_cycle;Max_cycle;Signal;HPM_P1;HPM_P2
2022/09/12 00:01:11;;;;;;;1.33;1.02;;;;;;;18.96;79.57;99277.66;4971982;28;20035;-84
2022/09/12 00:03:38;;;;;;;3.35;1.80;;;;;;;18.53;79.73;99261.31;4971445;28;20035;-86
2022/09/12 00:06:12;;;;;;;2.25;1.85;;;;;;;18.25;81.62;99228.97;4971205;28;20512;-86
2022/09/12 00:08:37;;;;;;;1.35;1.23;;;;;;;18.60;80.81;99244.03;4954085;28;20047;-86
2022/09/12 00:11:04;;;;;;;0.90;0.82;;;;;;;18.72;79.75;99261.16;4971089;28;20031;-87
2022/09/12 00:13:30;;;;;;;2.33;2.15;;;;;;;18.59;79.08;99229.78;4971591;28;20035;-86
2022/09/12 00:15:55;;;;;;;1.58;0.98;;;;;;;18.55;79.06;99244.28;4971758;28;20031;-86
2022/09/12 00:18:21;;;;;;;0.80;0.80;;;;;;;18.47;79.52;99214.44;4954108;28;20549;-85
2022/09/12 00:20:47;;;;;;;1.33;1.23;;;;;;;18.76;78.29;99214.63;4971101;28;20075;-85
2022/09/12 00:23:13;;;;;;;2.10;1.90;;;;;;;18.90;77.19;99222.75;4971513;28;20497;-85
2022/09/12 00:25:43;;;;;;;1.15;0.90;;;;;;;19.26;76.33;99288.44;4972090;28;20041;-85
2022/09/12 00:28:09;;;;;;;0.98;0.98;;;;;;;19.08;76.99;99285.00;4971655;28;20479;-86
2022/09/12 00:30:39;;;;;;;1.00;0.93;;;;;;;19.17;76.70;99275.59;4970804;28;20122;-87
2022/09/12 00:33:05;;;;;;;0.47;0.47;;;;;;;19.49;75.61;99280.88;4971133;28;20138;-87
2022/09/12 00:35:30;;;;;;;2.17;2.03;;;;;;;19.34;75.74;99258.59;4971052;28;20121;-85
2022/09/12 00:37:56;;;;;;;2.50;0.88;;;;;;;19.64;74.75;99297.84;4971223;28;20031;-85
2022/09/12 00:40:22;;;;;;;4.47;0.90;;;;;;;19.37;75.38;99281.59;4972821;28;20027;-85
2022/09/12 00:42:47;;;;;;;1.52;1.42;;;;;;;19.63;74.72;99302.34;4975280;28;20026;-84
2022/09/12 00:45:28;;;;;;;0.50;0.50;;;;;;;19.03;75.71;99228.28;4974958;28;20033;-84
2022/09/12 00:47:55;;;;;;;3.45;1.65;;;;;;;19.12;76.03;99269.63;4975804;28;20116;-85
2022/09/12 00:50:21;;;;;;;1.08;0.98;;;;;;;19.08;76.73;99284.16;4974136;28;20089;-86
2022/09/12 00:52:54;;;;;;;1.27;1.17;;;;;;;18.98;76.44;99251.72;4974896;28;20034;-86
2022/09/12 00:55:39;;;;;;;0.75;0.75;;;;;;;19.02;78.30;99297.84;4974704;28;20165;-87
2022/09/12 00:58:11;;;;;;;0.77;0.77;;;;;;;19.17;79.06;99322.84;4956001;29;20059;-86
2022/09/12 01:00:37;;;;;;;0.57;0.57;;;;;;;18.48;80.30;99226.84;4962802;28;20027;-85
2022/09/12 01:03:13;;;;;;;3.30;1.73;;;;;;;18.34;80.73;99254.31;4974421;28;20038;-84
2022/09/12 01:05:46;;;;;;;1.48;1.38;;;;;;;18.49;80.23;99249.94;4974443;28;20034;-84
2022/09/12 01:08:12;;;;;;;0.90;0.85;;;;;;;18.80;79.46;99250.94;4974419;28;20031;-84
2022/09/12 01:10:40;;;;;;;1.00;0.95;;;;;;;18.78;78.91;99234.97;4973895;28;20508;-84
2022/09/12 01:13:07;;;;;;;1.90;1.77;;;;;;;19.06;79.26;99302.94;4956960;28;20097;-85
2022/09/12 01:15:33;;;;;;;0.30;0.30;;;;;;;19.36;79.73;99326.22;4974357;28;20458;-85
2022/09/12 01:18:36;;;;;;;0.63;0.30;;;;;;;19.47;79.46;99313.06;4974724;28;20110;-86
2022/09/12 01:21:04;;;;;;;2.22;2.00;;;;;;;19.40;79.77;99317.06;4974233;28;20122;-85
2022/09/12 01:24:04;;;;;;;1.13;1.05;;;;;;;19.23;81.07;99318.03;4974362;28;20034;-86
2022/09/12 01:26:48;;;;;;;0.88;0.88;;;;;;;19.44;81.01;99313.25;4974426;28;20122;-86
2022/09/12 01:29:35;;;;;;;1.27;1.17;;;;;;;19.46;80.29;99311.38;4974207;28;20038;-84
2022/09/12 01:32:30;;;;;;;2.35;1.27;;;;;;;19.39;80.09;99312.66;4973879;28;20493;-85
2022/09/12 01:35:34;;;;;;;0.43;0.43;;;;;;;19.10;80.09;99268.88;4974243;28;20042;-85
2022/09/12 01:37:59;;;;;;;1.25;1.15;;;;;;;19.39;79.61;99309.97;4961946;28;20081;-85
2022/09/12 01:40:34;;;;;;;0.45;0.45;;;;;;;19.04;79.36;99269.22;4973811;28;20062;-84
2022/09/12 01:43:21;;;;;;;0.70;0.70;;;;;;;19.22;79.57;99302.94;4973985;28;20062;-86
2022/09/12 01:46:00;;;;;;;0.20;0.20;;;;;;;19.05;78.25;99223.69;4973363;28;20038;-85
2022/09/12 01:48:35;;;;;;;1.13;1.05;;;;;;;19.32;77.18;99223.03;4974159;28;20054;-86
2022/09/12 01:51:25;;;;;;;5.00;1.77;;;;;;;19.30;76.89;99239.16;4933067;29;20035;-86
2022/09/12 01:54:02;;;;;;;1.20;0.85;;;;;;;19.24;76.19;99225.31;4973933;28;20043;-85
2022/09/12 01:56:32;;;;;;;1.33;1.23;;;;;;;19.14;76.91;99216.97;4956935;28;20105;-85
2022/09/12 01:59:07;;;;;;;0.68;0.40;;;;;;;19.25;76.49;99221.69;4973921;28;20027;-84
2022/09/12 02:01:40;;;;;;;3.53;1.25;;;;;;;19.15;76.87;99194.59;4973525;28;20138;-85
2022/09/12 02:04:23;;;;;;;0.70;0.70;;;;;;;19.44;76.48;99234.84;4973744;28;20520;-85
2022/09/12 02:07:18;;;;;;;0.43;0.43;;;;;;;19.35;76.54;99236.22;4972434;28;20039;-85
2022/09/12 02:10:06;;;;;;;0.77;0.75;;;;;;;18.89;76.79;99246.88;4973333;28;20034;-84
2022/09/12 02:12:56;;;;;;;1.48;1.38;;;;;;;18.76;78.50;99234.19;4973407;28;20117;-85
2022/09/12 02:15:43;;;;;;;0.70;0.68;;;;;;;18.93;77.91;99293.88;4973178;28;20106;-85
2022/09/12 02:18:14;;;;;;;2.10;1.08;;;;;;;18.24;78.33;99216.56;4973366;28;20536;-85
2022/09/12 02:20:42;;;;;;;0.40;0.40;;;;;;;18.35;79.19;99257.81;4973029;28;20029;-84
2022/09/12 02:23:14;;;;;;;1.50;1.33;;;;;;;18.00;78.74;99224.09;4973130;28;20417;-84
2022/09/12 02:25:45;;;;;;;2.17;1.80;;;;;;;18.13;79.78;99242.97;4972690;28;20109;-84
2022/09/12 02:28:20;;;;;;;0.80;0.77;;;;;;;18.18;79.19;99234.72;4972754;28;20548;-85
2022/09/12 02:31:04;;;;;;;1.02;1.02;;;;;;;18.46;78.99;99297.31;4978574;28;20031;-85
2022/09/12 02:34:02;;;;;;;1.00;1.00;;;;;;;18.38;78.94;99295.94;4983124;28;20039;-84
2022/09/12 02:36:27;;;;;;;1.65;1.48;;;;;;;18.23;79.52;99308.28;4953925;28;20050;-84
2022/09/12 02:38:54;;;;;;;1.17;1.08;;;;;;;18.08;79.78;99274.38;4972643;28;20034;-85
2022/09/12 02:41:20;;;;;;;0.25;0.25;;;;;;;18.31;78.15;99261.63;4973033;28;20481;-85
2022/09/12 02:43:49;;;;;;;0.40;0.40;;;;;;;18.41;77.33;99289.53;4976988;28;20058;-86
2022/09/12 02:46:42;;;;;;;0.40;0.40;;;;;;;18.28;77.84;99273.31;4968392;28;20445;-86
2022/09/12 02:49:08;;;;;;;1.08;0.80;;;;;;;18.26;78.85;99293.91;4981979;28;20515;-86
2022/09/12 02:51:34;;;;;;;0.85;0.63;;;;;;;18.06;78.85;99286.97;4978728;28;20117;-85
2022/09/12 02:54:01;;;;;;;0.55;0.55;;;;;;;17.99;78.24;99274.88;4983155;28;20054;-85
2022/09/12 02:56:29;;;;;;;1.20;1.10;;;;;;;18.00;77.52;99277.44;4972565;28;20054;-86
2022/09/12 02:59:06;;;;;;;1.00;0.93;;;;;;;18.03;76.29;99269.28;4972503;28;20564;-85
2022/09/12 03:01:47;;;;;;;0.95;0.95;;;;;;;18.24;75.86;99280.66;4971115;28;20130;-87
2022/09/12 03:04:30;;;;;;;1.45;0.75;;;;;;;17.98;76.46;99249.13;4954411;28;20035;-88
2022/09/12 03:07:30;;;;;;;1.52;1.42;;;;;;;18.12;75.53;99261.72;4972682;28;20046;-87
2022/09/12 03:10:29;;;;;;;3.40;1.92;;;;;;;18.46;74.56;99299.97;4922245;28;20137;-87
2022/09/12 03:13:01;;;;;;;2.63;0.93;;;;;;;18.57;73.44;99292.25;4972576;28;20110;-87
2022/09/12 03:15:35;;;;;;;0.30;0.30;;;;;;;18.15;74.06;99270.47;4954862;28;20106;-87
2022/09/12 03:18:18;;;;;;;2.10;1.58;;;;;;;18.42;73.46;99261.91;4972374;28;20077;-87
2022/09/12 03:21:04;;;;;;;0.50;0.50;;;;;;;18.76;72.16;99290.28;4972141;28;20121;-87
2022/09/12 03:23:39;;;;;;;2.53;2.15;;;;;;;18.14;72.49;99209.16;4970385;28;20027;-86
2022/09/12 03:26:12;;;;;;;0.35;0.35;;;;;;;18.85;71.46;99288.09;4968108;28;20563;-86
2022/09/12 03:28:39;;;;;;;1.10;1.00;;;;;;;18.47;71.46;99249.16;4975088;28;20073;-87
2022/09/12 03:31:17;;;;;;;0.40;0.40;;;;;;;18.82;70.58;99258.84;4971768;28;20050;-86
2022/09/12 03:33:43;;;;;;;1.42;1.17;;;;;;;18.79;70.27;99265.22;4967690;28;20043;-86
2022/09/12 03:36:22;;;;;;;0.50;0.50;;;;;;;18.56;71.08;99261.16;4971304;28;20116;-85
2022/09/12 03:38:48;;;;;;;4.63;1.30;;;;;;;18.32;71.69;99287.38;4972028;28;20030;-84
2022/09/12 03:41:13;;;;;;;0.35;0.35;;;;;;;18.49;71.72;99282.00;4971825;28;20477;-83
2022/09/12 03:43:39;;;;;;;0.93;0.90;;;;;;;18.37;72.22;99283.50;4970558;28;20042;-86
2022/09/12 03:46:04;;;;;;;2.10;0.73;;;;;;;18.51;71.94;99300.63;4970206;28;20093;-88
2022/09/12 03:48:30;;;;;;;0.30;0.30;;;;;;;18.03;72.85;99282.63;4971006;28;20031;-87
2022/09/12 03:51:00;;;;;;;0.82;0.82;;;;;;;17.86;73.62;99277.28;4953916;28;20042;-89
2022/09/12 03:53:27;;;;;;;1.67;1.58;;;;;;;17.88;73.87;99302.97;4954566;28;20035;-89
2022/09/12 03:55:52;;;;;;;1.42;1.17;;;;;;;17.76;74.12;99290.22;4972025;28;20108;-86
2022/09/12 03:58:17;;;;;;;0.20;0.20;;;;;;;17.80;74.05;99278.44;4971999;28;20034;-87
2022/09/12 04:00:43;;;;;;;0.75;0.75;;;;;;;17.85;73.86;99296.88;4971183;28;20399;-86
2022/09/12 04:03:08;;;;;;;0.47;0.47;;;;;;;17.61;74.36;99256.31;4971676;28;20621;-87
2022/09/12 04:05:34;;;;;;;0.65;0.57;;;;;;;17.76;74.15;99276.03;4966942;28;20023;-89
2022/09/12 04:08:00;;;;;;;1.35;1.25;;;;;;;17.61;73.85;99259.88;4958638;28;20038;-89
2022/09/12 04:10:25;;;;;;;0.65;0.65;;;;;;;17.68;73.64;99276.41;4971021;28;20568;-89
2022/09/12 04:12:50;;;;;;;1.77;1.27;;;;;;;17.66;73.04;99275.63;4971284;28;20432;-85
2022/09/12 04:15:16;;;;;;;0.60;0.50;;;;;;;17.77;73.16;99307.94;4972700;28;20030;-86
2022/09/12 04:17:41;;;;;;;0.57;0.40;;;;;;;17.66;73.03;99308.50;4975679;28;20027;-90
2022/09/12 04:20:07;;;;;;;0.68;0.68;;;;;;;17.66;72.79;99292.50;4974721;28;20416;-91
2022/09/12 04:22:33;;;;;;;0.60;0.60;;;;;;;17.53;72.60;99268.25;4979295;28;20062;-88
2022/09/12 04:24:58;;;;;;;0.10;0.10;;;;;;;17.85;72.22;99324.41;4976181;28;20027;-91
2022/09/12 04:27:24;;;;;;;0.88;0.85;;;;;;;17.65;72.32;99287.25;4964388;28;20037;-91
2022/09/12 04:29:49;;;;;;;0.17;0.17;;;;;;;17.61;71.69;99270.53;4957053;28;20038;-91
2022/09/12 04:32:14;;;;;;;1.08;0.63;;;;;;;18.01;70.81;99315.66;4968400;28;20066;-87
2022/09/12 04:34:40;;;;;;;1.42;1.33;;;;;;;17.97;70.18;99319.47;4974688;28;20030;-83
2022/09/12 04:37:06;;;;;;;0.63;0.63;;;;;;;17.85;70.71;99283.56;4973890;28;20035;-85
2022/09/12 04:39:31;;;;;;;1.35;1.08;;;;;;;18.16;69.78;99322.88;4975179;28;20034;-85
2022/09/12 04:41:57;;;;;;;0.30;0.30;;;;;;;17.96;69.51;99305.22;4975339;28;20058;-84
2022/09/12 04:44:22;;;;;;;10.32;0.70;;;;;;;17.85;70.12;99315.56;4974808;28;20506;-85
2022/09/12 04:46:48;;;;;;;0.30;0.30;;;;;;;17.69;69.41;99262.16;4974966;28;20031;-86
2022/09/12 04:49:18;;;;;;;0.63;0.60;;;;;;;18.20;69.50;99337.81;4973453;28;20121;-86
2022/09/12 04:51:43;;;;;;;0.38;0.38;;;;;;;18.05;69.19;99310.09;4974733;28;20480;-85
2022/09/12 04:54:18;;;;;;;0.82;0.75;;;;;;;18.30;68.82;99332.84;4974687;28;20142;-86
2022/09/12 04:56:48;;;;;;;0.10;0.10;;;;;;;18.19;68.76;99316.53;4972564;28;20496;-88
2022/09/12 04:59:15;;;;;;;0.75;0.75;;;;;;;18.23;67.95;99345.66;4974649;28;20034;-88
2022/09/12 05:01:41;;;;;;;0.38;0.38;;;;;;;18.03;67.76;99300.47;4974717;28;20090;-87
2022/09/12 05:04:09;;;;;;;1.27;1.17;;;;;;;18.28;68.75;99316.03;4952250;28;20560;-94
2022/09/12 05:06:36;;;;;;;0.28;0.28;;;;;;;18.40;67.61;99351.91;4975476;28;20044;-90
2022/09/12 05:09:04;;;;;;;1.75;1.65;;;;;;;18.42;68.33;99334.84;4974897;28;20045;-85
2022/09/12 05:11:33;;;;;;;0.13;0.13;;;;;;;18.53;67.55;99339.63;4973702;28;20038;-93
2022/09/12 05:13:59;;;;;;;1.42;1.33;;;;;;;18.44;66.67;99326.75;4955461;28;20113;-94
2022/09/12 05:16:26;;;;;;;1.10;1.02;;;;;;;18.42;65.75;99309.97;4975795;28;20493;-95
2022/09/12 05:18:52;;;;;;;0.38;0.38;;;;;;;18.95;65.24;99342.75;4963003;28;20043;-95
2022/09/12 05:21:20;;;;;;;0.25;0.25;;;;;;;18.95;64.77;99324.94;4975025;28;20101;-95
2022/09/12 05:23:49;;;;;;;0.77;0.77;;;;;;;18.79;64.54;99300.81;4976063;28;20030;-96
2022/09/12 05:26:16;;;;;;;0.47;0.47;;;;;;;19.14;63.13;99339.94;4974983;28;20030;-93
2022/09/12 05:28:42;;;;;;;0.13;0.13;;;;;;;18.74;63.44;99315.38;4956829;28;21507;-94
2022/09/12 05:31:54;;;;;;;0.10;0.10;;;;;;;18.72;62.82;99299.44;4973865;28;20051;-92
2022/09/12 05:34:19;;;;;;;0.57;0.57;;;;;;;18.97;62.65;99295.44;4955781;28;20038;-92
2022/09/12 05:36:45;;;;;;;0.30;0.30;;;;;;;19.11;60.93;99282.16;4972771;28;20489;-91
2022/09/12 05:39:11;;;;;;;0.10;0.10;;;;;;;19.32;61.49;99317.50;4973261;28;20031;-90
2022/09/12 05:41:36;;;;;;;0.13;0.13;;;;;;;19.12;61.35;99275.88;4973902;28;20035;-89
2022/09/12 05:44:04;;;;;;;0.28;0.28;;;;;;;19.38;61.15;99308.25;4973971;28;20066;-93
2022/09/12 05:46:41;;;;;;;0.95;0.93;;;;;;;19.81;60.15;99337.88;4974451;28;20041;-93
2022/09/12 05:49:10;;;;;;;0.20;0.20;;;;;;;19.53;60.55;99290.47;4974244;28;20038;-90
2022/09/12 05:51:38;;;;;;;1.65;1.55;;;;;;;20.04;61.78;99384.72;4973744;28;20408;-95
2022/09/12 05:54:06;;;;;;;0.47;0.47;;;;;;;19.76;59.27;99289.09;4975811;28;20453;-93
2022/09/12 05:56:33;;;;;;;0.30;0.30;;;;;;;19.89;58.73;99296.44;4958614;28;20034;-95
2022/09/12 05:59:11;;;;;;;0.30;0.30;;;;;;;20.12;58.00;99292.38;4975788;28;20416;-95
2022/09/12 06:01:37;;;;;;;0.35;0.35;;;;;;;20.09;57.55;99340.75;4975277;28;20037;-94
2022/09/12 06:04:05;;;;;;;0.63;0.63;;;;;;;19.90;58.70;99271.41;4975388;28;20031;-91
2022/09/12 06:06:34;;;;;;;1.00;1.00;;;;;;;20.12;57.05;99303.09;4975281;28;20027;-90
2022/09/12 06:09:02;;;;;;;0.30;0.30;;;;;;;20.03;58.59;99286.63;4975245;28;20110;-94
2022/09/12 06:11:30;;;;;;;0.47;0.47;;;;;;;20.60;57.53;99356.41;4974787;28;20041;-91
2022/09/12 06:13:57;;;;;;;0.55;0.55;;;;;;;20.55;56.67;99312.00;4956163;28;20395;-91
2022/09/12 06:16:25;;;;;;;0.40;0.32;;;;;;;20.83;57.28;99328.22;4974468;28;20551;-95
2022/09/12 06:18:53;;;;;;;0.17;0.17;;;;;;;21.05;56.01;99314.28;4974741;28;20524;-95
2022/09/12 06:21:20;;;;;;;0.55;0.40;;;;;;;20.82;55.93;99292.53;4974369;28;20039;-94
2022/09/12 06:23:46;;;;;;;0.32;0.28;;;;;;;20.73;56.22;99293.94;4974925;28;20093;-94
2022/09/12 06:26:13;;;;;;;0.30;0.30;;;;;;;21.10;56.27;99317.53;4974424;28;20113;-92
2022/09/12 06:28:41;;;;;;;0.73;0.73;;;;;;;20.78;54.46;99274.91;4956115;28;20035;-88
2022/09/12 06:31:12;;;;;;;0.50;0.50;;;;;;;20.95;55.42;99310.50;4973368;28;20145;-95
2022/09/12 06:33:40;;;;;;;0.50;0.40;;;;;;;21.26;54.18;99322.78;4973583;28;20093;-89
2022/09/12 06:36:11;;;;;;;1.90;0.80;;;;;;;21.06;55.57;99278.47;4972793;28;20035;-90
2022/09/12 06:38:37;;;;;;;0.13;0.13;;;;;;;21.56;54.54;99309.16;4972616;28;20027;-89
2022/09/12 06:41:05;;;;;;;0.13;0.13;;;;;;;21.94;52.77;99334.41;4973102;28;20038;-90
2022/09/12 06:43:32;;;;;;;0.57;0.45;;;;;;;21.60;53.60;99301.81;4973451;28;20494;-93
2022/09/12 06:45:58;;;;;;;0.30;0.30;;;;;;;21.35;52.33;99243.50;4973158;28;20046;-91
2022/09/12 06:48:26;;;;;;;2.20;0.63;;;;;;;21.87;52.18;99327.72;4973660;28;20039;-90
2022/09/12 06:51:03;;;;;;;0.10;0.10;;;;;;;21.85;52.50;99325.16;4973328;28;20117;-89
2022/09/12 06:53:32;;;;;;;0.63;0.43;;;;;;;21.51;52.08;99276.44;4973467;28;20043;-90
2022/09/12 06:56:06;;;;;;;0.20;0.20;;;;;;;21.77;52.57;99306.88;4955924;28;20467;-88
2022/09/12 06:58:33;;;;;;;0.68;0.68;;;;;;;21.43;51.77;99270.69;4972864;28;20027;-89
2022/09/12 07:01:07;;;;;;;0.10;0.10;;;;;;;21.75;51.66;99332.97;4955838;28;20027;-88
2022/09/12 07:03:34;;;;;;;0.20;0.20;;;;;;;22.02;51.33;99341.97;4955684;28;20404;-89
2022/09/12 07:06:08;;;;;;;0.13;0.13;;;;;;;21.69;50.93;99263.59;4974103;28;20515;-92
2022/09/12 07:08:35;;;;;;;0.22;0.20;;;;;;;21.84;50.79;99242.03;4972368;28;20106;-84
2022/09/12 07:11:19;;;;;;;0.43;0.43;;;;;;;22.26;51.72;99313.41;4973030;28;20459;-87
2022/09/12 07:13:47;;;;;;;0.30;0.30;;;;;;;22.37;51.75;99312.69;4972490;28;20445;-88
2022/09/12 07:16:16;;;;;;;0.47;0.47;;;;;;;22.50;50.05;99326.97;4972895;28;20030;-89
2022/09/12 07:18:42;;;;;;;0.35;0.35;;;;;;;22.58;50.50;99313.00;4972868;28;20085;-93
2022/09/12 07:21:13;;;;;;;0.10;0.10;;;;;;;22.93;50.30;99320.38;4972912;28;20030;-94
2022/09/12 07:23:40;;;;;;;0.15;0.15;;;;;;;22.40;49.31;99256.06;4953990;28;20038;-92
2022/09/12 07:26:08;;;;;;;0.30;0.28;;;;;;;22.46;49.69;99293.25;4955646;28;20035;-91
2022/09/12 07:28:34;;;;;;;0.25;0.15;;;;;;;22.43;49.74;99289.88;4955106;28;20066;-86
2022/09/12 07:31:11;;;;;;;0.10;0.10;;;;;;;22.25;49.23;99259.78;4954924;28;20026;-87
2022/09/12 07:33:49;;;;;;;0.20;0.20;;;;;;;22.36;50.25;99238.41;4972073;28;20031;-89
2022/09/12 07:36:19;;;;;;;0.45;0.43;;;;;;;22.51;49.36;99264.19;4970985;28;20027;-88
2022/09/12 07:38:45;;;;;;;0.45;0.45;;;;;;;22.84;48.72;99278.00;4972031;28;20027;-88
2022/09/12 07:41:18;;;;;;;0.30;0.30;;;;;;;22.71;49.19;99270.84;4972207;28;20038;-87
2022/09/12 07:43:44;;;;;;;0.00;0.00;;;;;;;22.98;49.11;99279.69;4971814;28;20027;-88
2022/09/12 07:46:13;;;;;;;0.90;0.90;;;;;;;22.82;48.66;99272.75;4971966;28;20034;-88
2022/09/12 07:48:39;;;;;;;0.10;0.10;;;;;;;22.99;48.29;99274.19;4972189;28;20030;-88
2022/09/12 07:51:08;;;;;;;0.35;0.35;;;;;;;23.23;48.10;99308.38;4971156;28;20034;-87
2022/09/12 07:53:36;;;;;;;0.45;0.30;;;;;;;23.25;46.96;99311.81;4972395;28;20054;-87
2022/09/12 07:56:04;;;;;;;0.10;0.10;;;;;;;22.92;47.53;99267.53;4972321;28;20065;-87
2022/09/12 07:58:31;;;;;;;0.28;0.28;;;;;;;23.34;48.35;99291.44;4971970;28;20034;-87
2022/09/12 08:01:12;;;;;;;0.10;0.10;;;;;;;23.23;46.15;99276.06;4971846;28;20067;-87
2022/09/12 08:03:46;;;;;;;0.35;0.30;;;;;;;23.37;44.77;99272.34;4971934;28;20043;-88
2022/09/12 08:06:12;;;;;;;0.40;0.40;;;;;;;23.39;45.61;99351.16;4954490;28;20489;-87
2022/09/12 08:08:39;;;;;;;0.10;0.10;;;;;;;23.00;46.06;99250.84;4971758;28;20031;-87
2022/09/12 08:11:07;;;;;;;0.43;0.20;;;;;;;23.36;46.87;99316.41;4971691;28;20042;-87
2022/09/12 08:13:35;;;;;;;0.10;0.10;;;;;;;23.82;46.85;99267.19;4971906;28;20497;-88
2022/09/12 08:16:04;;;;;;;0.10;0.10;;;;;;;24.19;45.91;99309.28;4972068;28;20029;-88
2022/09/12 08:18:31;;;;;;;0.13;0.13;;;;;;;24.07;43.96;99287.69;4972125;28;20041;-88
2022/09/12 08:21:04;;;;;;;0.00;0.00;;;;;;;24.02;44.38;99300.69;4953845;28;20039;-87
2022/09/12 08:23:30;;;;;;;0.30;0.30;;;;;;;23.81;44.90;99297.75;4972069;28;20035;-87
2022/09/12 08:26:03;;;;;;;0.10;0.10;;;;;;;23.95;44.42;99259.03;4971524;28;20039;-88
2022/09/12 08:28:30;;;;;;;0.10;0.10;;;;;;;24.41;43.41;99314.72;4971654;28;20588;-87
2022/09/12 08:31:04;;;;;;;1.00;0.35;;;;;;;23.75;42.94;99268.59;4974235;28;20055;-87
2022/09/12 08:33:32;;;;;;;0.10;0.10;;;;;;;23.53;43.59;99251.41;4978376;28;20041;-86
2022/09/12 08:36:12;;;;;;;0.10;0.10;;;;;;;23.22;44.64;99304.81;4979056;28;20023;-87
2022/09/12 08:38:40;;;;;;;0.03;0.03;;;;;;;23.07;43.54;99257.50;4980492;28;20034;-88
2022/09/12 08:41:13;;;;;;;0.30;0.20;;;;;;;23.57;45.00;99332.78;4978139;28;20043;-87
2022/09/12 08:43:58;;;;;;;0.70;0.65;;;;;;;23.02;43.61;99279.34;4978770;28;20450;-87
2022/09/12 08:46:43;;;;;;;;;;;;;;;23.21;44.70;99329.16;4978477;28;20066;-88
2022/09/12 08:49:13;;;;;;;0.03;0.03;;;;;;;22.99;45.13;99273.34;4973687;28;20451;-88
2022/09/12 08:51:42;;;;;;;0.28;0.28;;;;;;;23.60;45.30;99265.25;4972687;28;20034;-87
2022/09/12 08:54:22;;;;;;;2.05;0.93;;;;;;;23.91;43.54;99246.75;4955006;28;20031;-88
2022/09/12 08:56:48;;;;;;;0.10;0.10;;;;;;;23.94;43.52;99273.47;4971978;28;20500;-89
2022/09/12 08:59:14;;;;;;;0.20;0.20;;;;;;;23.77;42.00;99280.09;4972363;28;20031;-92
2022/09/12 09:01:44;;;;;;;0.10;0.10;;;;;;;23.63;42.66;99289.22;4955710;28;20444;-86
2022/09/12 09:04:20;;;;;;;0.47;0.43;;;;;;;23.04;43.39;99230.84;4973575;28;20097;-92
2022/09/12 09:07:13;;;;;;;0.15;0.15;;;;;;;23.16;44.42;99245.25;4966019;28;20509;-86
2022/09/12 09:09:44;;;;;;;0.13;0.13;;;;;;;24.10;43.32;99324.34;4974881;28;20030;-89
2022/09/12 09:12:33;;;;;;;0.22;0.20;;;;;;;23.73;44.23;99263.34;4970052;28;20118;-87
2022/09/12 09:15:23;;;;;;;0.20;0.20;;;;;;;23.95;42.65;99302.13;4961319;28;20039;-88
2022/09/12 09:18:03;;;;;;;0.30;0.30;;;;;;;23.51;42.81;99253.34;4965137;28;20042;-87
2022/09/12 09:20:46;;;;;;;0.15;0.10;;;;;;;23.60;42.75;99222.16;4953891;28;20062;-88
2022/09/12 09:23:41;;;;;;;0.43;0.43;;;;;;;24.04;43.72;99309.50;4968588;28;20045;-87
2022/09/12 09:26:32;;;;;;;0.30;0.30;;;;;;;23.66;43.02;99216.31;4968287;28;20026;-89
2022/09/12 09:29:13;;;;;;;0.15;0.15;;;;;;;23.64;41.72;99226.34;4963328;28;20118;-89
2022/09/12 09:31:40;;;;;;;0.20;0.20;;;;;;;23.54;40.69;99249.56;4971698;28;20047;-90
2022/09/12 09:34:18;;;;;;;0.32;0.28;;;;;;;23.83;41.86;99285.03;4965859;28;20030;-89
2022/09/12 09:36:58;;;;;;;3.78;1.17;;;;;;;24.08;41.88;99230.16;4956046;28;20035;-94
2022/09/12 09:39:33;;;;;;;0.25;0.25;;;;;;;24.38;42.19;99212.53;4940443;28;20058;-93
2022/09/12 09:42:26;;;;;;;0.10;0.10;;;;;;;24.78;41.22;99257.88;4957965;28;20135;-93
2022/09/12 09:44:55;;;;;;;0.68;0.68;;;;;;;24.13;40.95;99219.88;4958382;28;20031;-92
2022/09/12 09:47:26;;;;;;;0.10;0.10;;;;;;;23.49;41.50;99198.75;4957081;28;20038;-90
2022/09/12 09:50:01;;;;;;;0.30;0.30;;;;;;;23.44;42.02;99225.19;4957253;28;20031;-92
2022/09/12 09:52:29;;;;;;;0.17;0.17;;;;;;;23.77;39.67;99264.84;4958012;28;20039;-94
2022/09/12 09:55:00;;;;;;;0.20;0.20;;;;;;;24.26;41.01;99265.56;4956849;28;20037;-92
2022/09/12 09:57:41;;;;;;;0.15;0.15;;;;;;;24.21;41.26;99248.91;4939684;28;20050;-91
2022/09/12 10:00:42;;;;;;;0.10;0.10;;;;;;;24.33;39.90;99279.44;4956020;28;20030;-88
2022/09/12 10:03:07;;;;;;;0.20;0.20;;;;;;;24.23;38.42;99284.66;4897096;29;20032;-87
2022/09/12 10:06:29;;;;;;;0.22;0.22;;;;;;;23.96;39.62;99276.91;4960705;28;20066;-89
2022/09/12 10:09:33;;;;;;;0.00;0.00;;;;;;;23.80;42.19;99203.63;4956757;28;20113;-89
2022/09/12 10:12:02;;;;;;;0.70;0.28;;;;;;;24.16;43.71;99217.91;4908211;28;20482;-89
2022/09/12 10:14:35;;;;;;;0.15;0.15;;;;;;;24.09;40.47;99210.31;4973427;28;20035;-89
2022/09/12 10:17:43;;;;;;;0.00;0.00;;;;;;;24.24;41.52;99220.88;4957074;28;20511;-91
2022/09/12 10:20:39;;;;;;;0.10;0.10;;;;;;;24.82;40.18;99216.19;4956492;28;20121;-91
2022/09/12 10:23:23;;;;;;;0.10;0.10;;;;;;;25.17;38.38;99260.97;4974466;28;20030;-90
2022/09/12 10:25:55;;;;;;;0.30;0.30;;;;;;;24.17;39.62;99169.28;4974105;28;20026;-91
2022/09/12 10:28:44;;;;;;;0.50;0.50;;;;;;;24.05;40.28;99165.75;4956219;28;20031;-90
2022/09/12 10:31:15;;;;;;;0.10;0.10;;;;;;;24.11;40.22;99240.69;4973480;28;20051;-89
2022/09/12 10:33:45;;;;;;;0.63;0.55;;;;;;;24.20;39.76;99251.72;4956256;28;20041;-92
2022/09/12 10:36:18;;;;;;;0.10;0.10;;;;;;;24.40;38.17;99196.25;4956538;28;20026;-93
2022/09/12 10:38:56;;;;;;;0.00;0.00;;;;;;;24.94;40.30;99235.06;4956221;28;20034;-90
2022/09/12 10:41:24;;;;;;;0.15;0.15;;;;;;;25.04;39.21;99209.03;4956503;28;20121;-90
2022/09/12 10:43:50;;;;;;;0.65;0.65;;;;;;;25.01;40.55;99214.69;4974166;28;20095;-92
2022/09/12 10:46:18;;;;;;;1.20;0.82;;;;;;;25.49;38.92;99257.47;4972377;28;20042;-94
2022/09/12 10:48:46;;;;;;;0.50;0.40;;;;;;;25.79;38.88;99269.38;4957382;28;20481;-96
2022/09/12 10:51:23;;;;;;;0.10;0.10;;;;;;;25.55;37.54;99250.72;4956143;28;20121;-90
2022/09/12 10:53:55;;;;;;;1.38;1.08;;;;;;;24.93;39.69;99182.94;4955628;28;20092;-87
2022/09/12 10:56:25;;;;;;;0.47;0.45;;;;;;;25.24;39.76;99193.00;4955972;28;20038;-91
2022/09/12 10:58:53;;;;;;;0.13;0.13;;;;;;;25.64;39.58;99244.53;4955600;28;20030;-89
2022/09/12 11:01:40;;;;;;;0.38;0.38;;;;;;;25.79;39.07;99250.44;4955618;28;20035;-91
2022/09/12 11:04:33;;;;;;;0.10;0.10;;;;;;;25.91;36.67;99248.56;4955031;28;20043;-87
2022/09/12 11:07:04;;;;;;;1.10;0.80;;;;;;;25.75;38.85;99243.63;4972540;28;20035;-88
2022/09/12 11:10:01;;;;;;;1.38;1.23;;;;;;;25.15;38.95;99152.31;4931654;29;20535;-89
2022/09/12 11:12:40;;;;;;;0.60;0.50;;;;;;;25.88;39.68;99241.56;4932342;29;20142;-88
2022/09/12 11:15:32;;;;;;;0.57;0.57;;;;;;;26.34;37.02;99236.75;4933041;29;20044;-93
2022/09/12 11:18:19;;;;;;;0.75;0.70;;;;;;;25.71;35.89;99236.75;4932345;29;20071;-91
2022/09/12 11:20:47;;;;;;;0.55;0.55;;;;;;;25.94;37.65;99231.25;4916256;29;20039;-89
2022/09/12 11:23:12;;;;;;;0.47;0.30;;;;;;;25.93;35.92;99230.34;4916150;29;20070;-89
2022/09/12 11:25:47;;;;;;;0.20;0.20;;;;;;;25.92;36.21;99220.56;4915658;29;20040;-90
2022/09/12 11:28:20;;;;;;;0.07;0.07;;;;;;;25.82;36.07;99179.13;4932055;29;20035;-90
2022/09/12 11:31:11;;;;;;;1.23;0.75;;;;;;;26.02;36.56;99204.44;4915711;29;20051;-91
2022/09/12 11:33:49;;;;;;;0.20;0.20;;;;;;;25.90;36.22;99188.28;4934608;29;20047;-89
2022/09/12 11:36:35;;;;;;;0.10;0.10;;;;;;;26.45;36.10;99215.00;4950546;29;20130;-90
2022/09/12 11:39:51;;;;;;;0.20;0.20;;;;;;;26.53;35.98;99214.31;4950774;29;20494;-89
2022/09/12 11:42:37;;;;;;;0.38;0.38;;;;;;;25.11;36.32;99175.16;4950560;29;20533;-90
2022/09/12 11:45:12;;;;;;;0.38;0.32;;;;;;;24.91;38.60;99195.69;4969146;28;20129;-88
2022/09/12 11:47:43;;;;;;;0.47;0.47;;;;;;;24.86;37.23;99197.91;4970868;28;20042;-90
2022/09/12 11:50:25;;;;;;;0.00;0.00;;;;;;;25.05;37.67;99153.22;4971541;28;20062;-89
2022/09/12 11:53:24;;;;;;;0.10;0.10;;;;;;;25.76;36.41;99191.28;4972473;28;20070;-89
2022/09/12 11:56:16;;;;;;;0.00;0.00;;;;;;;26.00;37.21;99222.63;4962897;28;20050;-89
2022/09/12 11:58:56;;;;;;;0.75;0.35;;;;;;;26.01;37.00;99172.97;4972271;28;20089;-89
2022/09/12 12:01:27;;;;;;;0.20;0.20;;;;;;;26.11;35.90;99163.09;4970411;28;20039;-89
2022/09/12 12:03:58;;;;;;;0.40;0.32;;;;;;;26.00;34.91;99169.44;4970330;28;20037;-87